Time;durP1;ratioP1;P1;durP2;ratioP2;P2;SDS_P1;SDS_P2;PMS_P1;PMS_P2;Temp;Humidity;BMP_temperature;BMP_pressure;BME280_temperature;BME280_humidity;BME280_pressure;Samples;Min_cycle;Max_cycle;Signal;HPM_P1;HPM_P2
2022/07/31 00:00:09;;;;;;;;;;;;;;;;;;6316253;22;20211;-89
2022/07/31 00:02:47;;;;;;;;;;;;;;;;;;6293608;22;19914;-89
2022/07/31 00:05:18;;;;;;;;;;;;;;;;;;6291136;22;19917;-89
2022/07/31 00:07:45;;;;;;;;;;;;;;;;;;6269280;22;19921;-89
2022/07/31 00:10:13;;;;;;;;;;;;;;;;;;6290525;22;20267;-89
2022/07/31 00:12:40;;;;;;;;;;;;;;;;;;6266528;22;19914;-88
2022/07/31 00:15:06;;;;;;;;;;;;;;;;;;6289764;22;20398;-89
2022/07/31 00:17:39;;;;;;;;;;;;;;;;;;6292406;22;19961;-89
2022/07/31 00:20:05;;;;;;;;;;;;;;;;;;6288938;22;19960;-90
2022/07/31 00:22:34;;;;;;;;;;;;;;;;;;6292208;22;19915;-90
2022/07/31 00:25:00;;;;;;;;;;;;;;;;;;6289042;22;19919;-89
2022/07/31 00:27:27;;;;;;;;;;;;;;;;;;6292455;22;19914;-89
2022/07/31 00:29:53;;;;;;;;;;;;;;;;;;6293906;22;20307;-90
2022/07/31 00:32:19;;;;;;;;;;;;;;;;;;6295611;22;19915;-89
2022/07/31 00:34:45;;;;;;;;;;;;;;;;;;6294848;22;19918;-90
2022/07/31 00:37:12;;;;;;;;;;;;;;;;;;6290119;22;19950;-90
2022/07/31 00:39:39;;;;;;;;;;;;;;;;;;6263724;22;20353;-90
2022/07/31 00:42:07;;;;;;;;;;;;;;;;;;6293152;22;19997;-90
2022/07/31 00:44:37;;;;;;;;;;;;;;;;;;6298305;22;19922;-90
2022/07/31 00:47:06;;;;;;;;;;;;;;;;;;6296843;22;19921;-89
2022/07/31 00:49:33;;;;;;;;;;;;;;;;;;6293343;22;19915;-90
2022/07/31 00:52:01;;;;;;;;;;;;;;;;;;6288032;22;19972;-90
2022/07/31 00:54:28;;;;;;;;;;;;;;;;;;6289171;22;19915;-89
2022/07/31 00:56:54;;;;;;;;;;;;;;;;;;6315814;22;20249;-89
2022/07/31 00:59:27;;;;;;;;;;;;;;;;;;6290762;22;19914;-89
2022/07/31 01:01:54;;;;;;;;;;;;;;;;;;6290601;22;19976;-89
2022/07/31 01:04:39;;;;;;;;;;;;;;;;;;6290322;22;19918;-89
2022/07/31 01:07:05;;;;;;;;;;;;;;;;;;6260991;22;19911;-89
2022/07/31 01:09:32;;;;;;;;;;;;;;;;;;6287445;22;19989;-89
2022/07/31 01:11:59;;;;;;;;;;;;;;;;;;6286667;22;20304;-89
2022/07/31 01:14:25;;;;;;;;;;;;;;;;;;6289500;22;20018;-90
2022/07/31 01:16:52;;;;;;;;;;;;;;;;;;6263258;22;19915;-89
2022/07/31 01:19:19;;;;;;;;;;;;;;;;;;6286315;22;19915;-90
2022/07/31 01:21:46;;;;;;;;;;;;;;;;;;6262037;22;19914;-90
2022/07/31 01:24:14;;;;;;;;;;;;;;;;;;6284986;22;20332;-90
2022/07/31 01:26:47;;;;;;;;;;;;;;;;;;6287857;22;20183;-89
2022/07/31 01:29:28;;;;;;;;;;;;;;;;;;6299132;22;19926;-89
2022/07/31 01:31:53;;;;;;;;;;;;;;;;;;6314101;22;20116;-89
2022/07/31 01:34:21;;;;;;;;;;;;;;;;;;6291135;22;19949;-89
2022/07/31 01:36:48;;;;;;;;;;;;;;;;;;6286590;22;19921;-89
2022/07/31 01:39:23;;;;;;;;;;;;;;;;;;6288475;22;19914;-89
2022/07/31 01:41:51;;;;;;;;;;;;;;;;;;6260713;22;19998;-89
2022/07/31 01:44:18;;;;;;;;;;;;;;;;;;6283348;22;19915;-89
2022/07/31 01:46:44;;;;;;;;;;;;;;;;;;6288700;22;19937;-89
2022/07/31 01:49:13;;;;;;;;;;;;;;;;;;6288628;22;19939;-89
2022/07/31 01:51:58;;;;;;;;;;;;;;;;;;6260581;22;19918;-90
2022/07/31 01:54:24;;;;;;;;;;;;;;;;;;6237886;22;19971;-89
2022/07/31 01:56:53;;;;;;;;;;;;;;;;;;6287198;22;19930;-90
2022/07/31 01:59:20;;;;;;;;;;;;;;;;;;6237367;22;19986;-89
2022/07/31 02:01:47;;;;;;;;;;;;;;;;;;6239654;22;19941;-89
2022/07/31 02:04:32;;;;;;;;;;;;;;;;;;6266963;22;20301;-89
2022/07/31 02:07:05;;;;;;;;;;;;;;;;;;6263562;22;19989;-89
2022/07/31 02:09:32;;;;;;;;;;;;;;;;;;6240701;22;19950;-89
2022/07/31 02:11:59;;;;;;;;;;;;;;;;;;6236986;22;19921;-89
2022/07/31 02:14:27;;;;;;;;;;;;;;;;;;6238582;22;19919;-90
2022/07/31 02:16:53;;;;;;;;;;;;;;;;;;6260729;22;19948;-89
2022/07/31 02:19:22;;;;;;;;;;;;;;;;;;6283357;22;20385;-89
2022/07/31 02:22:05;;;;;;;;;;;;;;;;;;6281938;22;19915;-89
2022/07/31 02:24:35;;;;;;;;;;;;;;;;;;6259613;22;19953;-89
2022/07/31 02:27:01;;;;;;;;;;;;;;;;;;6258343;22;20642;-89
2022/07/31 02:29:28;;;;;;;;;;;;;;;;;;6235386;22;19921;-89
2022/07/31 02:31:55;;;;;;;;;;;;;;;;;;6263015;22;20360;-89
2022/07/31 02:34:25;;;;;;;;;;;;;;;;;;6287476;22;19954;-89
2022/07/31 02:36:53;;;;;;;;;;;;;;;;;;6287159;22;19915;-89
2022/07/31 02:39:18;;;;;;;;;;;;;;;;;;6286629;22;19975;-89
2022/07/31 02:41:46;;;;;;;;;;;;;;;;;;6291140;22;19915;-89
2022/07/31 02:44:12;;;;;;;;;;;;;;;;;;6286361;22;19915;-89
2022/07/31 02:46:39;;;;;;;;;;;;;;;;;;6264537;22;19965;-89
2022/07/31 02:49:06;;;;;;;;;;;;;;;;;;6288055;22;19914;-89
2022/07/31 02:51:34;;;;;;;;;;;;;;;;;;6290080;22;19934;-89
2022/07/31 02:54:00;;;;;;;;;;;;;;;;;;6296523;22;20001;-89
2022/07/31 02:56:27;;;;;;;;;;;;;;;;;;6294690;22;19914;-89
2022/07/31 02:58:53;;;;;;;;;;;;;;;;;;6295544;22;19922;-90
2022/07/31 03:01:20;;;;;;;;;;;;;;;;;;6293193;22;19915;-89
2022/07/31 03:03:47;;;;;;;;;;;;;;;;;;6295263;22;19931;-90
2022/07/31 03:06:13;;;;;;;;;;;;;;;;;;6319051;22;19914;-89
2022/07/31 03:08:43;;;;;;;;;;;;;;;;;;6320185;22;20104;-89
2022/07/31 03:11:10;;;;;;;;;;;;;;;;;;6320125;22;20239;-89
2022/07/31 03:13:37;;;;;;;;;;;;;;;;;;6294555;22;20216;-89
2022/07/31 03:16:04;;;;;;;;;;;;;;;;;;6290828;22;19984;-89
2022/07/31 03:18:30;;;;;;;;;;;;;;;;;;6292495;22;19918;-89
2022/07/31 03:20:56;;;;;;;;;;;;;;;;;;6292801;22;19936;-89
2022/07/31 03:23:26;;;;;;;;;;;;;;;;;;6293213;22;19922;-89
2022/07/31 03:25:54;;;;;;;;;;;;;;;;;;6318740;22;19914;-89
2022/07/31 03:28:20;;;;;;;;;;;;;;;;;;6292103;22;20072;-89
2022/07/31 03:31:02;;;;;;;;;;;;;;;;;;6296490;22;19925;-89
2022/07/31 03:33:29;;;;;;;;;;;;;;;;;;6319438;22;20220;-89
2022/07/31 03:35:56;;;;;;;;;;;;;;;;;;6292173;22;19922;-89
2022/07/31 03:38:23;;;;;;;;;;;;;;;;;;6317177;22;19946;-89
2022/07/31 03:40:50;;;;;;;;;;;;;;;;;;6296300;22;19926;-89
2022/07/31 03:43:18;;;;;;;;;;;;;;;;;;6323612;22;19985;-89
2022/07/31 03:45:45;;;;;;;;;;;;;;;;;;6298524;22;19914;-89
2022/07/31 03:48:12;;;;;;;;;;;;;;;;;;6297229;22;20639;-89
2022/07/31 03:50:38;;;;;;;;;;;;;;;;;;6298256;22;19915;-89
2022/07/31 03:53:05;;;;;;;;;;;;;;;;;;6298263;22;19932;-89
2022/07/31 03:55:32;;;;;;;;;;;;;;;;;;6293007;22;20293;-89
2022/07/31 03:58:00;;;;;;;;;;;;;;;;;;6290597;22;19937;-89
2022/07/31 04:00:26;;;;;;;;;;;;;;;;;;6294105;22;19925;-90
2022/07/31 04:02:54;;;;;;;;;;;;;;;;;;6291079;22;19915;-89
2022/07/31 04:05:20;;;;;;;;;;;;;;;;;;6291408;22;19911;-89
2022/07/31 04:07:47;;;;;;;;;;;;;;;;;;6290554;22;19911;-89
2022/07/31 04:10:13;;;;;;;;;;;;;;;;;;6289496;22;20180;-89
2022/07/31 04:12:54;;;;;;;;;;;;;;;;;;6229523;23;20348;-89
2022/07/31 04:15:36;;;;;;;;;;;;;;;;;;6228289;23;20084;-89
2022/07/31 04:18:03;;;;;;;;;;;;;;;;;;6223149;23;20045;-88
2022/07/31 04:20:29;;;;;;;;;;;;;;;;;;6226584;23;19949;-89
2022/07/31 04:22:56;;;;;;;;;;;;;;;;;;6225943;23;19938;-89
2022/07/31 04:25:43;;;;;;;;;;;;;;;;;;6170108;23;20585;-90
2022/07/31 04:28:09;;;;;;;;;;;;;;;;;;6143705;23;20391;-89
2022/07/31 04:30:38;;;;;;;;;;;;;;;;;;6171304;23;19938;-89
2022/07/31 04:33:05;;;;;;;;;;;;;;;;;;6168061;23;19987;-90
2022/07/31 04:35:41;;;;;;;;;;;;;;;;;;6196307;23;19926;-89
2022/07/31 04:38:07;;;;;;;;;;;;;;;;;;6170032;23;19929;-89
2022/07/31 04:40:34;;;;;;;;;;;;;;;;;;6146080;23;20404;-88
2022/07/31 04:43:06;;;;;;;;;;;;;;;;;;6170324;23;20060;-89
2022/07/31 04:45:37;;;;;;;;;;;;;;;;;;6172472;23;20088;-89
2022/07/31 04:48:03;;;;;;;;;;;;;;;;;;6197855;23;19982;-89
2022/07/31 04:50:38;;;;;;;;;;;;;;;;;;6226018;23;19969;-89
2022/07/31 04:53:04;;;;;;;;;;;;;;;;;;6224374;23;19919;-89
2022/07/31 04:55:31;;;;;;;;;;;;;;;;;;6204197;23;19959;-88
2022/07/31 04:57:57;;;;;;;;;;;;;;;;;;6198158;23;20245;-88
2022/07/31 05:00:41;;;;;;;;;;;;;;;;;;6225524;23;19965;-89
2022/07/31 05:03:08;;;;;;;;;;;;;;;;;;6197963;23;19915;-89
2022/07/31 05:05:45;;;;;;;;;;;;;;;;;;6224026;23;19925;-89
2022/07/31 05:08:12;;;;;;;;;;;;;;;;;;6199922;23;19915;-89
2022/07/31 05:13:29;;;;;;;;;;;;;;;;;;6226232;23;19961;-89
2022/07/31 05:15:55;;;;;;;;;;;;;;;;;;6254199;22;20360;-89
2022/07/31 05:18:21;;;;;;;;;;;;;;;;;;6289266;22;19922;-89
2022/07/31 05:20:49;;;;;;;;;;;;;;;;;;6286792;22;19914;-89
2022/07/31 05:23:15;;;;;;;;;;;;;;;;;;6287834;22;19915;-89
2022/07/31 05:25:41;;;;;;;;;;;;;;;;;;6289721;22;20007;-89
2022/07/31 05:28:07;;;;;;;;;;;;;;;;;;6262682;22;19985;-88
2022/07/31 05:30:43;;;;;;;;;;;;;;;;;;6288774;22;20486;-89
2022/07/31 05:33:09;;;;;;;;;;;;;;;;;;6289297;22;19919;-88
2022/07/31 05:35:36;;;;;;;;;;;;;;;;;;6262708;22;19934;-88
2022/07/31 05:38:02;;;;;;;;;;;;;;;;;;6286968;22;19964;-89
2022/07/31 05:40:35;;;;;;;;;;;;;;;;;;6289639;22;19971;-89
2022/07/31 05:43:02;;;;;;;;;;;;;;;;;;6288763;22;19921;-89
2022/07/31 05:45:30;;;;;;;;;;;;;;;;;;6293347;22;20243;-89
2022/07/31 05:48:03;;;;;;;;;;;;;;;;;;6290074;22;19925;-88
2022/07/31 05:50:50;;;;;;;;;;;;;;;;;;6258991;22;20267;-89
2022/07/31 05:53:17;;;;;;;;;;;;;;;;;;6229287;22;20400;-89
2022/07/31 05:55:44;;;;;;;;;;;;;;;;;;6209552;22;20026;-89
2022/07/31 05:58:13;;;;;;;;;;;;;;;;;;6260711;22;19934;-88
2022/07/31 06:00:40;;;;;;;;;;;;;;;;;;6237111;22;20053;-89
2022/07/31 06:03:07;;;;;;;;;;;;;;;;;;6231771;22;19985;-89
2022/07/31 06:05:37;;;;;;;;;;;;;;;;;;6208676;22;19926;-88
2022/07/31 06:08:04;;;;;;;;;;;;;;;;;;6258285;22;19911;-88
2022/07/31 06:10:32;;;;;;;;;;;;;;;;;;6235527;22;19923;-88
2022/07/31 06:12:58;;;;;;;;;;;;;;;;;;6234815;22;19915;-89
2022/07/31 06:15:25;;;;;;;;;;;;;;;;;;6233954;22;19942;-88
2022/07/31 06:17:52;;;;;;;;;;;;;;;;;;6234140;22;19915;-89
2022/07/31 06:20:19;;;;;;;;;;;;;;;;;;6254452;22;20004;-89
2022/07/31 06:23:05;;;;;;;;;;;;;;;;;;6231155;22;19953;-88
2022/07/31 06:25:45;;;;;;;;;;;;;;;;;;6254403;22;19925;-89
2022/07/31 06:28:12;;;;;;;;;;;;;;;;;;6228934;22;19922;-89
2022/07/31 06:30:39;;;;;;;;;;;;;;;;;;6231301;22;19937;-88
2022/07/31 06:33:06;;;;;;;;;;;;;;;;;;6226605;22;20447;-89
2022/07/31 06:35:32;;;;;;;;;;;;;;;;;;6283326;22;19950;-89
2022/07/31 06:37:59;;;;;;;;;;;;;;;;;;6286818;22;19985;-89
2022/07/31 06:40:25;;;;;;;;;;;;;;;;;;6291161;22;20107;-89
2022/07/31 06:42:52;;;;;;;;;;;;;;;;;;6288127;22;20211;-89
2022/07/31 06:45:19;;;;;;;;;;;;;;;;;;6286961;22;19915;-90
2022/07/31 06:47:47;;;;;;;;;;;;;;;;;;6316250;22;19911;-90
2022/07/31 06:50:14;;;;;;;;;;;;;;;;;;6287186;22;19919;-89
2022/07/31 06:52:42;;;;;;;;;;;;;;;;;;6289988;22;19915;-88
2022/07/31 06:55:09;;;;;;;;;;;;;;;;;;6284904;22;19964;-89
2022/07/31 06:57:36;;;;;;;;;;;;;;;;;;6286411;22;20328;-88
2022/07/31 07:00:03;;;;;;;;;;;;;;;;;;6285719;22;20006;-90
2022/07/31 07:02:30;;;;;;;;;;;;;;;;;;6289502;22;19923;-89
2022/07/31 07:04:56;;;;;;;;;;;;;;;;;;6286387;22;20645;-89
2022/07/31 07:07:29;;;;;;;;;;;;;;;;;;6285737;22;20348;-89
2022/07/31 07:09:55;;;;;;;;;;;;;;;;;;6285857;22;19954;-89
2022/07/31 07:12:34;;;;;;;;;;;;;;;;;;6290461;22;19938;-89
2022/07/31 07:15:07;;;;;;;;;;;;;;;;;;6286147;22;19969;-89
2022/07/31 07:17:35;;;;;;;;;;;;;;;;;;6287496;22;19973;-89
2022/07/31 07:20:02;;;;;;;;;;;;;;;;;;6285943;22;19914;-90
2022/07/31 07:22:31;;;;;;;;;;;;;;;;;;6289633;22;19987;-89
2022/07/31 07:25:01;;;;;;;;;;;;;;;;;;6287434;22;20488;-90
2022/07/31 07:27:28;;;;;;;;;;;;;;;;;;6262908;22;20038;-89
2022/07/31 07:29:54;;;;;;;;;;;;;;;;;;6291426;22;19911;-89
2022/07/31 07:32:22;;;;;;;;;;;;;;;;;;6289147;22;20724;-88
2022/07/31 07:34:49;;;;;;;;;;;;;;;;;;6265039;22;19918;-89
2022/07/31 07:37:15;;;;;;;;;;;;;;;;;;6289434;22;20433;-88
2022/07/31 07:39:43;;;;;;;;;;;;;;;;;;6288136;22;19914;-89
2022/07/31 07:42:09;;;;;;;;;;;;;;;;;;6288347;22;19914;-89
2022/07/31 07:44:36;;;;;;;;;;;;;;;;;;6289412;22;19922;-88
2022/07/31 07:47:05;;;;;;;;;;;;;;;;;;6293027;22;19971;-90
2022/07/31 07:49:34;;;;;;;;;;;;;;;;;;6294219;22;19915;-89
2022/07/31 07:52:01;;;;;;;;;;;;;;;;;;6291899;22;19946;-89
2022/07/31 07:54:29;;;;;;;;;;;;;;;;;;6303128;22;19918;-89
2022/07/31 07:56:59;;;;;;;;;;;;;;;;;;6324113;22;20651;-89
2022/07/31 07:59:26;;;;;;;;;;;;;;;;;;6298863;22;19937;-89
2022/07/31 08:01:58;;;;;;;;;;;;;;;;;;6298857;22;19959;-89
2022/07/31 08:04:24;;;;;;;;;;;;;;;;;;6328594;22;19979;-89
2022/07/31 08:06:51;;;;;;;;;;;;;;;;;;6325414;22;20335;-89
2022/07/31 08:09:19;;;;;;;;;;;;;;;;;;6323500;22;19952;-89
2022/07/31 08:11:45;;;;;;;;;;;;;;;;;;6296342;22;19985;-89
2022/07/31 08:14:12;;;;;;;;;;;;;;;;;;6318089;22;20005;-89
2022/07/31 08:16:40;;;;;;;;;;;;;;;;;;6294296;22;20711;-89
2022/07/31 08:19:07;;;;;;;;;;;;;;;;;;6320176;22;20638;-89
2022/07/31 08:21:38;;;;;;;;;;;;;;;;;;6293161;22;20323;-89
2022/07/31 08:24:06;;;;;;;;;;;;;;;;;;6317128;22;20031;-89
2022/07/31 08:29:20;;;;;;;;;;;;;;;;;;6321182;22;20353;-89
2022/07/31 08:31:47;;;;;;;;;;;;;;;;;;6295552;22;19914;-89
2022/07/31 08:34:16;;;;;;;;;;;;;;;;;;6320369;22;19918;-89
2022/07/31 08:36:43;;;;;;;;;;;;;;;;;;6320862;22;19918;-89
2022/07/31 08:39:10;;;;;;;;;;;;;;;;;;6290264;22;20243;-89
2022/07/31 08:41:39;;;;;;;;;;;;;;;;;;6293097;22;19917;-89
2022/07/31 08:44:09;;;;;;;;;;;;;;;;;;6293035;22;19934;-89
2022/07/31 08:46:36;;;;;;;;;;;;;;;;;;6294051;22;20403;-89
2022/07/31 08:49:03;;;;;;;;;;;;;;;;;;6291965;22;19937;-89
2022/07/31 08:51:30;;;;;;;;;;;;;;;;;;6296282;22;19929;-88
2022/07/31 08:53:56;;;;;;;;;;;;;;;;;;6296963;22;20216;-89
2022/07/31 08:56:24;;;;;;;;;;;;;;;;;;6297067;22;20039;-89
2022/07/31 08:58:50;;;;;;;;;;;;;;;;;;6321291;22;19921;-89
2022/07/31 09:01:18;;;;;;;;;;;;;;;;;;6293909;22;19915;-90
2022/07/31 09:03:45;;;;;;;;;;;;;;;;;;6296672;22;19938;-89
2022/07/31 09:06:20;;;;;;;;;;;;;;;;;;6321012;22;20047;-89
2022/07/31 09:09:01;;;;;;;;;;;;;;;;;;6223779;23;19994;-89
2022/07/31 09:11:28;;;;;;;;;;;;;;;;;;6179062;23;20020;-89
2022/07/31 09:13:54;;;;;;;;;;;;;;;;;;6204731;23;19911;-89
2022/07/31 09:16:23;;;;;;;;;;;;;;;;;;6203243;23;19916;-89
2022/07/31 09:18:49;;;;;;;;;;;;;;;;;;6204165;23;19938;-90
2022/07/31 09:21:15;;;;;;;;;;;;;;;;;;6199489;23;19994;-90
2022/07/31 09:23:42;;;;;;;;;;;;;;;;;;6200584;23;19920;-90
2022/07/31 09:26:09;;;;;;;;;;;;;;;;;;6171511;23;19946;-90
2022/07/31 09:28:52;;;;;;;;;;;;;;;;;;6227018;23;20008;-90
2022/07/31 09:31:19;;;;;;;;;;;;;;;;;;6197172;23;19915;-90
2022/07/31 09:33:46;;;;;;;;;;;;;;;;;;6200770;23;19922;-90
2022/07/31 09:36:12;;;;;;;;;;;;;;;;;;6173102;23;20121;-90
2022/07/31 09:38:40;;;;;;;;;;;;;;;;;;6202975;23;19957;-90
2022/07/31 09:41:08;;;;;;;;;;;;;;;;;;6290587;22;19981;-90
2022/07/31 09:43:38;;;;;;;;;;;;;;;;;;6324152;22;20014;-90
2022/07/31 09:46:06;;;;;;;;;;;;;;;;;;6295312;22;20335;-91
2022/07/31 09:48:33;;;;;;;;;;;;;;;;;;6298169;22;19968;-90
2022/07/31 09:51:01;;;;;;;;;;;;;;;;;;6297280;22;19949;-89
2022/07/31 09:53:28;;;;;;;;;;;;;;;;;;6324450;22;20003;-89
2022/07/31 09:55:54;;;;;;;;;;;;;;;;;;6290781;22;19925;-90
2022/07/31 09:58:29;;;;;;;;;;;;;;;;;;6295431;22;19918;-90
2022/07/31 10:01:00;;;;;;;;;;;;;;;;;;6291531;22;19915;-89
2022/07/31 10:03:27;;;;;;;;;;;;;;;;;;6291729;22;19915;-90
2022/07/31 10:05:54;;;;;;;;;;;;;;;;;;6292130;22;20040;-89
2022/07/31 10:08:27;;;;;;;;;;;;;;;;;;6271189;22;19921;-89
2022/07/31 10:10:53;;;;;;;;;;;;;;;;;;6290653;22;20483;-90
2022/07/31 10:13:19;;;;;;;;;;;;;;;;;;6287677;22;19914;-90
2022/07/31 10:15:47;;;;;;;;;;;;;;;;;;6289526;22;20002;-90
2022/07/31 10:18:14;;;;;;;;;;;;;;;;;;6288356;22;19942;-90
2022/07/31 10:20:41;;;;;;;;;;;;;;;;;;6313640;22;19915;-89
2022/07/31 10:23:29;;;;;;;;;;;;;;;;;;6285820;22;20331;-90
2022/07/31 10:25:59;;;;;;;;;;;;;;;;;;6283548;22;19914;-90
2022/07/31 10:28:28;;;;;;;;;;;;;;;;;;6286716;22;19922;-90
2022/07/31 10:30:58;;;;;;;;;;;;;;;;;;6288651;22;19915;-90
2022/07/31 10:33:29;;;;;;;;;;;;;;;;;;6261953;22;19942;-89
2022/07/31 10:35:56;;;;;;;;;;;;;;;;;;6285091;22;19972;-89
2022/07/31 10:38:26;;;;;;;;;;;;;;;;;;6290309;22;19915;-90
2022/07/31 10:40:54;;;;;;;;;;;;;;;;;;6287380;22;19944;-90
2022/07/31 10:43:20;;;;;;;;;;;;;;;;;;6283604;22;20387;-89
2022/07/31 10:45:48;;;;;;;;;;;;;;;;;;6259291;22;19910;-87
2022/07/31 10:48:20;;;;;;;;;;;;;;;;;;6282864;22;19924;-85
2022/07/31 10:50:49;;;;;;;;;;;;;;;;;;6285758;22;19971;-83
2022/07/31 10:53:18;;;;;;;;;;;;;;;;;;6282638;22;20135;-84
2022/07/31 10:55:45;;;;;;;;;;;;;;;;;;6287199;22;19923;-84
2022/07/31 10:58:12;;;;;;;;;;;;;;;;;;6263963;22;19914;-85
2022/07/31 11:00:48;;;;;;;;;;;;;;;;;;6291973;22;19985;-84
2022/07/31 11:03:14;;;;;;;;;;;;;;;;;;6262644;22;19911;-85
2022/07/31 11:05:40;;;;;;;;;;;;;;;;;;6292328;22;19921;-84
2022/07/31 11:08:07;;;;;;;;;;;;;;;;;;6288928;22;19910;-84
2022/07/31 11:10:34;;;;;;;;;;;;;;;;;;6289712;22;19967;-84
2022/07/31 11:13:03;;;;;;;;;;;;;;;;;;6287972;22;19938;-84
2022/07/31 11:15:36;;;;;;;;;;;;;;;;;;6293974;22;19919;-84
2022/07/31 11:18:03;;;;;;;;;;;;;;;;;;6290088;22;19918;-84
2022/07/31 11:20:29;;;;;;;;;;;;;;;;;;6265207;22;19914;-84
2022/07/31 11:22:58;;;;;;;;;;;;;;;;;;6293312;22;20242;-84
2022/07/31 11:25:28;;;;;;;;;;;;;;;;;;6264298;22;20370;-84
2022/07/31 11:27:54;;;;;;;;;;;;;;;;;;6290171;22;19914;-85
2022/07/31 11:30:26;;;;;;;;;;;;;;;;;;6288775;22;19921;-84
2022/07/31 11:32:56;;;;;;;;;;;;;;;;;;6293069;22;19949;-85
2022/07/31 11:35:22;;;;;;;;;;;;;;;;;;6289981;22;20369;-84
2022/07/31 11:37:51;;;;;;;;;;;;;;;;;;6292416;22;19954;-84
2022/07/31 11:40:21;;;;;;;;;;;;;;;;;;6293598;22;19940;-85
2022/07/31 11:42:48;;;;;;;;;;;;;;;;;;6297050;22;20347;-86
2022/07/31 11:45:14;;;;;;;;;;;;;;;;;;6266907;22;19939;-85
2022/07/31 11:47:41;;;;;;;;;;;;;;;;;;6295941;22;19960;-85
2022/07/31 11:50:09;;;;;;;;;;;;;;;;;;6292474;22;19911;-85
2022/07/31 11:52:36;;;;;;;;;;;;;;;;;;6269064;22;19915;-86
2022/07/31 11:55:03;;;;;;;;;;;;;;;;;;6306110;22;19919;-84
2022/07/31 11:57:29;;;;;;;;;;;;;;;;;;6299872;22;19914;-84
2022/07/31 11:59:56;;;;;;;;;;;;;;;;;;6322495;22;20342;-84
2022/07/31 12:02:24;;;;;;;;;;;;;;;;;;6297413;22;19914;-85
2022/07/31 12:04:52;;;;;;;;;;;;;;;;;;6326075;22;20368;-84
2022/07/31 12:07:18;;;;;;;;;;;;;;;;;;6296808;22;19974;-84
2022/07/31 12:09:46;;;;;;;;;;;;;;;;;;6326265;22;19921;-85
2022/07/31 12:12:18;;;;;;;;;;;;;;;;;;6295178;22;19920;-84
2022/07/31 12:14:44;;;;;;;;;;;;;;;;;;6323086;22;19914;-84
2022/07/31 12:17:12;;;;;;;;;;;;;;;;;;6321963;22;20654;-84
2022/07/31 12:19:39;;;;;;;;;;;;;;;;;;6323230;22;19914;-84
2022/07/31 12:22:12;;;;;;;;;;;;;;;;;;6293268;22;19915;-85
2022/07/31 12:24:38;;;;;;;;;;;;;;;;;;6296056;22;19910;-84
2022/07/31 12:27:05;;;;;;;;;;;;;;;;;;6295148;22;19991;-84
2022/07/31 12:29:31;;;;;;;;;;;;;;;;;;6295352;22;19985;-84
2022/07/31 12:31:58;;;;;;;;;;;;;;;;;;6291124;22;19915;-85
2022/07/31 12:34:26;;;;;;;;;;;;;;;;;;6292997;22;19918;-84
2022/07/31 12:37:07;;;;;;;;;;;;;;;;;;6318724;22;19914;-84
2022/07/31 12:39:33;;;;;;;;;;;;;;;;;;6294368;22;19914;-84
2022/07/31 12:42:03;;;;;;;;;;;;;;;;;;6316004;22;19914;-85
2022/07/31 12:44:38;;;;;;;;;;;;;;;;;;6316944;22;19910;-85
2022/07/31 12:47:05;;;;;;;;;;;;;;;;;;6289716;22;19927;-85
2022/07/31 12:49:32;;;;;;;;;;;;;;;;;;6292581;22;19914;-85
2022/07/31 12:52:13;;;;;;;;;;;;;;;;;;6193085;23;19923;-84
2022/07/31 12:54:48;;;;;;;;;;;;;;;;;;6193747;23;19920;-85
2022/07/31 12:57:17;;;;;;;;;;;;;;;;;;6188906;23;19916;-85
2022/07/31 12:59:43;;;;;;;;;;;;;;;;;;6166469;23;19955;-85
2022/07/31 13:02:16;;;;;;;;;;;;;;;;;;6165859;23;19916;-85
2022/07/31 13:04:44;;;;;;;;;;;;;;;;;;6171206;23;20039;-86
2022/07/31 13:07:10;;;;;;;;;;;;;;;;;;6166227;23;19920;-84
2022/07/31 13:09:37;;;;;;;;;;;;;;;;;;6192926;23;19950;-84
2022/07/31 13:12:08;;;;;;;;;;;;;;;;;;6189235;23;19915;-84
2022/07/31 13:14:54;;;;;;;;;;;;;;;;;;6173279;23;19919;-85
2022/07/31 13:17:20;;;;;;;;;;;;;;;;;;6143262;23;19912;-83
2022/07/31 13:19:53;;;;;;;;;;;;;;;;;;6166868;23;20308;-84
2022/07/31 13:22:21;;;;;;;;;;;;;;;;;;6190161;23;20013;-84
2022/07/31 13:24:50;;;;;;;;;;;;;;;;;;6191686;23;19923;-84
2022/07/31 13:27:17;;;;;;;;;;;;;;;;;;6140424;23;20327;-84
2022/07/31 13:29:45;;;;;;;;;;;;;;;;;;6215702;22;20394;-84
2022/07/31 13:32:11;;;;;;;;;;;;;;;;;;6235837;22;19986;-84
2022/07/31 13:34:38;;;;;;;;;;;;;;;;;;6263005;22;20006;-85
2022/07/31 13:37:20;;;;;;;;;;;;;;;;;;6288544;22;19917;-84
2022/07/31 13:39:46;;;;;;;;;;;;;;;;;;6289214;22;19921;-84
2022/07/31 13:42:13;;;;;;;;;;;;;;;;;;6287449;22;19993;-84
2022/07/31 13:44:41;;;;;;;;;;;;;;;;;;6291536;22;19992;-84
2022/07/31 13:47:09;;;;;;;;;;;;;;;;;;6294108;22;19914;-85
2022/07/31 13:49:37;;;;;;;;;;;;;;;;;;6291284;22;19936;-85
2022/07/31 14:02:03;;;;;;;;;;;;;;;;;;6266598;22;19942;-91
2022/07/31 14:04:29;;;;;;;;;;;;;;;;;;6258882;22;19929;-92
2022/07/31 14:06:55;;;;;;;;;;;;;;;;;;6259341;22;20422;-93
2022/07/31 14:09:21;;;;;;;;;;;;;;;;;;6287713;22;19959;-90
2022/07/31 14:11:47;;;;;;;;;;;;;;;;;;6289036;22;19942;-91
2022/07/31 14:14:15;;;;;;;;;;;;;;;;;;6283250;22;19965;-90
2022/07/31 14:16:42;;;;;;;;;;;;;;;;;;6256169;22;20162;-91
2022/07/31 14:19:08;;;;;;;;;;;;;;;;;;6259564;22;19911;-92
2022/07/31 14:21:34;;;;;;;;;;;;;;;;;;6263143;22;19946;-92
2022/07/31 14:24:02;;;;;;;;;;;;;;;;;;6261206;22;19964;-92
2022/07/31 14:26:30;;;;;;;;;;;;;;;;;;6263696;22;20281;-92
2022/07/31 14:29:12;;;;;;;;;;;;;;;;;;6262510;22;19964;-91
2022/07/31 14:31:38;;;;;;;;;;;;;;;;;;6284362;22;19980;-91
2022/07/31 14:34:23;;;;;;;;;;;;;;;;;;6263594;22;19937;-90
2022/07/31 14:36:48;;;;;;;;;;;;;;;;;;6262217;22;20348;-90
2022/07/31 14:39:16;;;;;;;;;;;;;;;;;;6284151;22;20353;-90
2022/07/31 14:41:43;;;;;;;;;;;;;;;;;;6289198;22;19914;-90
2022/07/31 14:44:14;;;;;;;;;;;;;;;;;;6287546;22;19942;-91
2022/07/31 14:47:02;;;;;;;;;;;;;;;;;;6290247;22;19918;-90
2022/07/31 14:49:29;;;;;;;;;;;;;;;;;;6260702;22;19915;-91
2022/07/31 14:52:09;;;;;;;;;;;;;;;;;;6285636;22;19918;-90
2022/07/31 14:54:37;;;;;;;;;;;;;;;;;;6287738;22;20021;-91
2022/07/31 14:57:03;;;;;;;;;;;;;;;;;;6234931;22;19952;-90
2022/07/31 14:59:29;;;;;;;;;;;;;;;;;;6292065;22;20281;-89
2022/07/31 15:01:57;;;;;;;;;;;;;;;;;;6292069;22;19960;-90
2022/07/31 15:04:24;;;;;;;;;;;;;;;;;;6291226;22;19914;-89
2022/07/31 15:42:12;;;;;;;;;;;;;;;;;;6245193;22;19908;-90
2022/07/31 15:44:50;;;;;;;;;;;;;;;;;;6207630;22;19930;-90
2022/07/31 15:47:52;;;;;;;;;;;;;;;;;;6219864;22;20244;-90
2022/07/31 15:53:15;;;;;;;;;;;;;;;;;;6235331;22;19969;-90
2022/07/31 15:55:47;;;;;;;;;;;;;;;;;;6208600;22;20472;-90
2022/07/31 15:58:16;;;;;;;;;;;;;;;;;;6234399;22;19915;-90
2022/07/31 16:03:34;;;;;;;;;;;;;;;;;;6228809;22;19914;-90
2022/07/31 16:06:03;;;;;;;;;;;;;;;;;;6248177;22;19950;-89
2022/07/31 16:08:31;;;;;;;;;;;;;;;;;;6240875;22;19986;-89
2022/07/31 16:11:06;;;;;;;;;;;;;;;;;;6237444;22;19911;-90
2022/07/31 16:13:35;;;;;;;;;;;;;;;;;;6238195;22;19915;-89
2022/07/31 16:18:55;;;;;;;;;;;;;;;;;;6260821;22;20384;-89
2022/07/31 16:21:27;;;;;;;;;;;;;;;;;;6239473;22;20373;-90
2022/07/31 16:24:05;;;;;;;;;;;;;;;;;;6235601;22;19910;-90
2022/07/31 16:26:55;;;;;;;;;;;;;;;;;;6288352;22;19964;-90
2022/07/31 16:29:24;;;;;;;;;;;;;;;;;;6239748;22;20388;-89
2022/07/31 16:31:52;;;;;;;;;;;;;;;;;;6259619;22;19914;-90
2022/07/31 16:34:38;;;;;;;;;;;;;;;;;;6286293;22;20335;-89
2022/07/31 16:37:07;;;;;;;;;;;;;;;;;;6234532;22;19915;-90
2022/07/31 16:39:36;;;;;;;;;;;;;;;;;;6235986;22;19921;-90
2022/07/31 16:42:05;;;;;;;;;;;;;;;;;;6285332;22;20046;-89
2022/07/31 16:44:36;;;;;;;;;;;;;;;;;;6236287;22;20398;-89
2022/07/31 16:47:05;;;;;;;;;;;;;;;;;;6285179;22;20263;-89
2022/07/31 16:49:31;;;;;;;;;;;;;;;;;;6237412;22;19919;-89
2022/07/31 16:52:03;;;;;;;;;;;;;;;;;;6234160;22;19914;-89
2022/07/31 16:55:01;;;;;;;;;;;;;;;;;;6238502;22;20398;-89
2022/07/31 16:57:24;;;;;;;;;;;;;;;;;;6263021;22;19921;-89
2022/07/31 16:59:50;;;;;;;;;;;;;;;;;;6237900;22;19921;-89
2022/07/31 17:02:17;;;;;;;;;;;;;;;;;;6236167;22;19938;-88
2022/07/31 17:04:43;;;;;;;;;;;;;;;;;;6242521;22;20271;-88
2022/07/31 17:07:16;;;;;;;;;;;;;;;;;;6235326;22;20221;-90
2022/07/31 17:09:45;;;;;;;;;;;;;;;;;;6238115;22;19914;-89
2022/07/31 17:12:22;;;;;;;;;;;;;;;;;;6236752;22;20774;-89
2022/07/31 17:15:14;;;;;;;;;;;;;;;;;;6238373;22;19961;-90
2022/07/31 17:17:46;;;;;;;;;;;;;;;;;;6243563;22;19911;-89
2022/07/31 17:20:22;;;;;;;;;;;;;;;;;;6261089;22;20190;-89
2022/07/31 17:22:51;;;;;;;;;;;;;;;;;;6234566;22;19950;-89
2022/07/31 17:25:25;;;;;;;;;;;;;;;;;;6233203;22;19915;-90
2022/07/31 17:27:52;;;;;;;;;;;;;;;;;;6231996;22;19924;-90
2022/07/31 17:30:23;;;;;;;;;;;;;;;;;;6233829;22;19995;-89
2022/07/31 17:32:55;;;;;;;;;;;;;;;;;;6234210;22;20331;-89
2022/07/31 17:35:37;;;;;;;;;;;;;;;;;;;;;
2022/07/31 17:38:05;;;;;;;;;;;;;;;;;;6256308;22;20353;-89
2022/07/31 17:40:32;;;;;;;;;;;;;;;;;;6234132;22;19985;-89
2022/07/31 17:42:58;;;;;;;;;;;;;;;;;;6225589;22;19919;-88
2022/07/31 17:45:27;;;;;;;;;;;;;;;;;;6230939;22;20319;-89
2022/07/31 17:47:59;;;;;;;;;;;;;;;;;;6231916;22;20288;-89
2022/07/31 17:50:31;;;;;;;;;;;;;;;;;;6236897;22;20251;-89
2022/07/31 17:52:59;;;;;;;;;;;;;;;;;;6232799;22;19911;-89
2022/07/31 17:55:31;;;;;;;;;;;;;;;;;;6233153;22;19926;-89
2022/07/31 17:58:18;;;;;;;;;;;;;;;;;;6229099;22;20342;-89